Time;durP1;ratioP1;P1;durP2;ratioP2;P2;SDS_P1;SDS_P2;PMS_P1;PMS_P2;Temp;Humidity;BMP_temperature;BMP_pressure;BME280_temperature;BME280_humidity;BME280_pressure;Samples;Min_cycle;Max_cycle;Signal;HPM_P1;HPM_P2
2021/12/27 00:00:09;;;;;;;23.57;12.70;;;-1.70;99.90;;;;;;5052350;28;20206;-75
2021/12/27 00:02:36;;;;;;;22.07;12.23;;;-1.70;99.90;;;;;;5051869;28;20205;-74
2021/12/27 00:05:03;;;;;;;23.13;12.23;;;-1.70;99.90;;;;;;5051964;28;22626;-75
2021/12/27 00:07:30;;;;;;;21.43;12.40;;;-1.70;99.90;;;;;;5050715;28;20199;-75
2021/12/27 00:09:57;;;;;;;22.13;11.90;;;-1.70;99.90;;;;;;5051789;28;20217;-75
2021/12/27 00:12:25;;;;;;;22.60;12.73;;;-1.70;99.90;;;;;;5052269;28;20199;-75
2021/12/27 00:14:52;;;;;;;24.20;11.30;;;-1.60;99.90;;;;;;5051747;28;20197;-75
2021/12/27 00:17:19;;;;;;;20.17;11.13;;;-1.70;99.90;;;;;;5052254;28;20205;-74
2021/12/27 00:19:47;;;;;;;24.63;12.97;;;-1.70;99.90;;;;;;5051328;28;20234;-75
2021/12/27 00:22:14;;;;;;;22.97;11.43;;;-1.70;99.90;;;;;;5051948;28;20654;-75
2021/12/27 00:24:46;;;;;;;23.03;12.53;;;-1.70;99.90;;;;;;5051889;28;20215;-74
2021/12/27 00:27:14;;;;;;;21.80;11.77;;;-1.60;99.90;;;;;;5050530;28;20480;-74
2021/12/27 00:29:42;;;;;;;26.67;12.23;;;-1.60;99.90;;;;;;5051613;28;20649;-75
2021/12/27 00:32:09;;;;;;;24.40;13.13;;;-1.60;99.90;;;;;;5051681;28;20202;-75
2021/12/27 00:34:37;;;;;;;23.50;12.00;;;-1.60;99.90;;;;;;5052176;28;20217;-75
2021/12/27 00:37:04;;;;;;;25.53;12.53;;;-1.60;99.90;;;;;;5051730;28;20625;-74
2021/12/27 00:39:32;;;;;;;25.90;12.67;;;-1.60;99.90;;;;;;5051170;28;20209;-74
2021/12/27 00:41:59;;;;;;;23.40;11.17;;;-1.60;99.90;;;;;;5051890;28;20470;-75
2021/12/27 00:44:26;;;;;;;24.00;12.37;;;-1.60;99.90;;;;;;5051933;28;20202;-75
2021/12/27 00:46:54;;;;;;;24.27;13.53;;;-1.60;99.90;;;;;;5051433;28;20219;-74
2021/12/27 00:49:21;;;;;;;22.40;12.17;;;-1.60;99.90;;;;;;5051619;28;20676;-75
2021/12/27 00:51:48;;;;;;;23.13;11.47;;;-1.60;99.90;;;;;;5051353;28;20286;-75
2021/12/27 00:54:16;;;;;;;25.40;12.90;;;-1.60;99.90;;;;;;5050420;28;20206;-75
2021/12/27 00:56:43;;;;;;;24.77;12.63;;;-1.50;99.90;;;;;;5049399;28;20280;-75
2021/12/27 00:59:10;;;;;;;25.60;12.10;;;-1.60;99.90;;;;;;5051810;28;20209;-66
2021/12/27 01:01:37;;;;;;;25.03;11.90;;;-1.60;99.90;;;;;;5050656;28;20213;-66
2021/12/27 01:04:06;;;;;;;23.03;12.37;;;-1.50;99.90;;;;;;5050630;28;20199;-66
2021/12/27 01:06:33;;;;;;;24.33;12.77;;;-1.60;99.90;;;;;;5051711;28;20223;-66
2021/12/27 01:09:00;;;;;;;23.50;12.10;;;-1.50;99.90;;;;;;5050665;28;20195;-66
2021/12/27 01:11:39;;;;;;;24.60;12.40;;;-1.60;99.90;;;;;;5051297;28;20206;-66
2021/12/27 01:14:11;;;;;;;23.30;11.77;;;-1.60;99.90;;;;;;5050373;28;20285;-66
2021/12/27 01:16:38;;;;;;;20.90;11.17;;;-1.60;99.90;;;;;;5051301;28;20657;-66
2021/12/27 01:19:07;;;;;;;21.23;11.13;;;-1.60;99.90;;;;;;5050470;28;20194;-66
2021/12/27 01:21:34;;;;;;;26.77;12.87;;;-1.60;99.90;;;;;;5050718;28;20574;-66
2021/12/27 01:24:03;;;;;;;21.20;11.83;;;-1.60;99.90;;;;;;5050807;28;20297;-66
2021/12/27 01:26:30;;;;;;;23.93;12.47;;;-1.50;99.90;;;;;;5050473;28;20211;-66
2021/12/27 01:28:58;;;;;;;23.73;12.27;;;-1.50;99.90;;;;;;5051439;28;20226;-66
2021/12/27 01:31:25;;;;;;;24.13;13.27;;;-1.60;99.90;;;;;;5051394;28;20207;-66
2021/12/27 01:33:52;;;;;;;23.60;12.73;;;-1.60;99.90;;;;;;5050918;28;20537;-66
2021/12/27 01:36:20;;;;;;;25.07;11.50;;;-1.50;99.90;;;;;;5050674;28;20668;-66
2021/12/27 01:38:48;;;;;;;22.10;11.47;;;-1.60;99.90;;;;;;5051044;28;20544;-66
2021/12/27 01:41:18;;;;;;;23.43;12.10;;;-1.60;99.90;;;;;;5054451;28;20209;-66
2021/12/27 01:43:46;;;;;;;22.30;11.97;;;-1.60;99.90;;;;;;5055062;28;20207;-66
2021/12/27 01:46:15;;;;;;;26.77;12.70;;;-1.60;99.90;;;;;;5054180;28;20540;-66
2021/12/27 01:48:45;;;;;;;22.73;12.80;;;-1.60;99.90;;;;;;5054665;28;20203;-66
2021/12/27 01:51:14;;;;;;;22.30;12.07;;;-1.60;99.90;;;;;;5051834;28;20210;-66
2021/12/27 01:53:45;;;;;;;23.20;11.70;;;-1.50;99.90;;;;;;5053789;28;20214;-66
2021/12/27 01:56:13;;;;;;;21.67;11.77;;;-1.60;99.90;;;;;;5054877;28;20195;-66
2021/12/27 01:58:41;;;;;;;23.13;11.77;;;-1.60;99.90;;;;;;5054361;28;20568;-66
2021/12/27 02:01:10;;;;;;;23.70;11.87;;;-1.60;99.90;;;;;;5053246;28;20215;-66
2021/12/27 02:03:39;;;;;;;23.07;11.40;;;-1.60;99.90;;;;;;5048670;28;20294;-66
2021/12/27 02:06:07;;;;;;;18.13;9.30;;;-1.50;99.90;;;;;;5054570;28;20214;-66
2021/12/27 02:08:36;;;;;;;23.63;11.73;;;-1.60;99.90;;;;;;5054893;28;20203;-66
2021/12/27 02:11:05;;;;;;;22.87;11.23;;;-1.50;99.90;;;;;;5054582;28;20558;-66
2021/12/27 02:13:32;;;;;;;23.40;10.10;;;-1.50;99.90;;;;;;5053654;28;20198;-66
2021/12/27 02:15:59;;;;;;;23.83;11.17;;;-1.50;99.90;;;;;;5054039;28;20569;-66
2021/12/27 02:18:26;;;;;;;25.57;12.40;;;-1.60;99.90;;;;;;5054681;28;20652;-66
2021/12/27 02:20:54;;;;;;;23.13;10.90;;;-1.50;99.90;;;;;;5053295;28;20199;-66
2021/12/27 02:23:22;;;;;;;18.00;8.37;;;-1.50;99.90;;;;;;5054334;28;20207;-66
2021/12/27 02:25:51;;;;;;;22.00;11.93;;;-1.50;99.90;;;;;;5054015;28;20219;-66
2021/12/27 02:28:20;;;;;;;21.37;11.27;;;-1.50;99.90;;;;;;5053202;28;20199;-66
2021/12/27 02:30:49;;;;;;;22.80;11.37;;;-1.50;99.90;;;;;;5052772;28;20219;-66
2021/12/27 02:33:16;;;;;;;23.07;12.23;;;-1.50;99.90;;;;;;5052569;28;20217;-66
2021/12/27 02:35:44;;;;;;;18.43;9.87;;;-1.50;99.90;;;;;;5052159;28;20645;-66
2021/12/27 02:38:15;;;;;;;21.93;10.67;;;-1.50;99.90;;;;;;5044487;28;20199;-66
2021/12/27 02:40:43;;;;;;;22.10;11.00;;;-1.60;99.90;;;;;;5053577;28;20671;-66
2021/12/27 02:43:12;;;;;;;24.57;11.23;;;-1.50;99.90;;;;;;5052932;28;20663;-66
2021/12/27 02:45:41;;;;;;;23.03;11.17;;;-1.60;99.90;;;;;;5053889;28;20739;-66
2021/12/27 02:48:09;;;;;;;22.03;10.53;;;-1.60;99.90;;;;;;5053469;28;20629;-66
2021/12/27 02:50:37;;;;;;;23.50;11.67;;;-1.50;99.90;;;;;;5052892;28;20199;-66
2021/12/27 02:53:04;;;;;;;22.33;11.57;;;-1.60;99.90;;;;;;5052628;28;20544;-66
2021/12/27 02:55:33;;;;;;;25.07;11.53;;;-1.60;99.90;;;;;;5054156;28;20195;-66
2021/12/27 02:58:00;;;;;;;21.50;10.87;;;-1.50;99.90;;;;;;5053754;28;20648;-66
2021/12/27 03:00:29;;;;;;;23.30;10.80;;;-1.60;99.90;;;;;;5053606;28;20641;-66
2021/12/27 03:02:57;;;;;;;21.87;10.90;;;-1.60;99.90;;;;;;5051838;28;20199;-66
2021/12/27 03:05:27;;;;;;;20.63;11.33;;;-1.60;99.90;;;;;;5053756;28;20195;-66
2021/12/27 03:07:55;;;;;;;23.20;12.37;;;-1.60;99.90;;;;;;5053765;28;20576;-66
2021/12/27 03:10:25;;;;;;;24.10;12.03;;;-1.60;99.90;;;;;;5053690;28;20559;-66
2021/12/27 03:12:55;;;;;;;21.20;11.33;;;-1.50;99.90;;;;;;5053272;28;20192;-66
2021/12/27 03:15:23;;;;;;;19.80;10.83;;;-1.50;99.90;;;;;;5052593;28;20199;-66
2021/12/27 03:17:52;;;;;;;23.47;11.40;;;-1.60;99.90;;;;;;5053669;28;20261;-66
2021/12/27 03:20:22;;;;;;;23.07;11.17;;;-1.60;99.90;;;;;;5053145;28;20617;-66
2021/12/27 03:22:49;;;;;;;22.60;11.27;;;-1.60;99.90;;;;;;5052811;28;20223;-66
2021/12/27 03:25:18;;;;;;;22.93;11.90;;;-1.50;99.90;;;;;;5053078;28;20220;-66
2021/12/27 03:27:46;;;;;;;18.43;9.90;;;-1.60;99.90;;;;;;5052404;28;20225;-66
2021/12/27 03:30:17;;;;;;;20.63;11.30;;;-1.50;99.90;;;;;;5053622;28;20210;-66
2021/12/27 03:32:44;;;;;;;22.30;10.67;;;-1.60;99.90;;;;;;5052795;28;20201;-66
2021/12/27 03:35:15;;;;;;;20.20;10.50;;;-1.50;99.90;;;;;;5053151;28;20211;-66
2021/12/27 03:37:44;;;;;;;21.23;11.03;;;-1.50;99.90;;;;;;5052742;28;20561;-66
2021/12/27 03:40:14;;;;;;;21.87;11.33;;;-1.50;99.90;;;;;;5052527;28;20195;-66
2021/12/27 03:42:41;;;;;;;22.63;11.23;;;-1.50;99.90;;;;;;5052785;28;20563;-66
2021/12/27 03:45:10;;;;;;;22.53;10.67;;;-1.50;99.90;;;;;;5052942;28;20203;-66
2021/12/27 03:47:38;;;;;;;19.17;10.17;;;-1.50;99.90;;;;;;5051968;28;20693;-66
2021/12/27 03:50:06;;;;;;;21.37;11.20;;;-1.50;99.90;;;;;;5052064;28;20202;-66
2021/12/27 03:52:33;;;;;;;22.13;11.17;;;-1.50;99.90;;;;;;5051864;28;20206;-66
2021/12/27 03:55:00;;;;;;;22.80;10.70;;;-1.50;99.90;;;;;;5052394;28;20561;-66
2021/12/27 03:57:27;;;;;;;18.63;9.60;;;-1.50;99.90;;;;;;5051975;28;20192;-66
2021/12/27 04:00:15;;;;;;;21.13;11.10;;;-1.50;99.90;;;;;;5053322;28;20206;-66
2021/12/27 04:02:43;;;;;;;22.27;12.07;;;-1.40;99.90;;;;;;5050320;28;20195;-66
2021/12/27 04:05:10;;;;;;;23.23;11.43;;;-1.30;99.90;;;;;;5051463;28;20570;-66
2021/12/27 04:07:38;;;;;;;19.90;9.73;;;-1.40;99.90;;;;;;5052324;28;20556;-66
2021/12/27 04:10:06;;;;;;;25.57;12.50;;;-1.40;99.90;;;;;;5052860;28;20543;-66
2021/12/27 04:12:33;;;;;;;21.23;12.00;;;-1.40;99.90;;;;;;5051563;28;20206;-66
2021/12/27 04:15:00;;;;;;;21.57;11.13;;;-1.50;99.90;;;;;;5050761;28;20195;-66
2021/12/27 04:17:27;;;;;;;23.33;12.00;;;-1.40;99.90;;;;;;5052452;28;20206;-66
2021/12/27 04:19:55;;;;;;;21.60;11.53;;;-1.40;99.90;;;;;;5052213;28;20560;-71
2021/12/27 04:22:22;;;;;;;22.70;11.47;;;-1.40;99.90;;;;;;5051062;28;20218;-72
2021/12/27 04:24:49;;;;;;;21.37;11.27;;;-1.40;99.90;;;;;;5052360;28;20724;-67
2021/12/27 04:27:16;;;;;;;21.70;11.70;;;-1.40;99.90;;;;;;5050431;28;20258;-66
2021/12/27 04:29:43;;;;;;;24.77;11.23;;;-1.40;99.90;;;;;;5057534;28;20195;-66
2021/12/27 04:32:11;;;;;;;22.73;11.27;;;-1.40;99.90;;;;;;5048502;28;20203;-66
2021/12/27 04:34:38;;;;;;;24.83;11.93;;;-1.30;99.90;;;;;;5051659;28;20203;-66
2021/12/27 04:37:06;;;;;;;24.50;12.10;;;-1.30;99.90;;;;;;5051072;28;20259;-66
2021/12/27 04:39:33;;;;;;;20.87;11.07;;;-1.30;99.90;;;;;;5051842;28;20203;-66
2021/12/27 04:42:01;;;;;;;22.50;12.63;;;-1.30;99.90;;;;;;5050143;28;20612;-66
2021/12/27 04:44:28;;;;;;;25.13;12.77;;;-1.30;99.90;;;;;;5042697;28;20253;-66
2021/12/27 04:46:55;;;;;;;24.73;12.47;;;-1.30;99.90;;;;;;5039756;28;20746;-66
2021/12/27 04:49:22;;;;;;;23.33;11.57;;;-1.30;99.90;;;;;;5051117;28;20210;-66
2021/12/27 04:51:49;;;;;;;22.17;11.70;;;-1.30;99.90;;;;;;5050653;28;20203;-66
2021/12/27 04:54:17;;;;;;;24.30;12.37;;;-1.30;99.90;;;;;;5050183;28;20211;-66
2021/12/27 04:56:46;;;;;;;22.57;11.73;;;-1.30;99.90;;;;;;5050793;28;20629;-66
2021/12/27 04:59:13;;;;;;;23.57;11.73;;;-1.20;99.90;;;;;;5050805;28;20207;-66
2021/12/27 05:01:40;;;;;;;24.83;11.43;;;-1.20;99.90;;;;;;5050145;28;20653;-66
2021/12/27 05:04:07;;;;;;;26.97;11.87;;;-1.20;99.90;;;;;;5048407;28;20195;-66
2021/12/27 05:06:34;;;;;;;24.40;12.63;;;-1.20;99.90;;;;;;5050682;28;20223;-66
2021/12/27 05:09:01;;;;;;;20.73;11.63;;;-1.20;99.90;;;;;;5051011;28;20203;-66
2021/12/27 05:11:30;;;;;;;23.53;12.10;;;-1.20;99.90;;;;;;5050791;28;20255;-66
2021/12/27 05:13:57;;;;;;;23.63;12.37;;;-1.20;99.90;;;;;;5050689;28;20207;-66
2021/12/27 05:16:24;;;;;;;23.80;11.63;;;-1.20;99.90;;;;;;5054968;28;20207;-66
2021/12/27 05:18:51;;;;;;;25.53;13.50;;;-1.10;99.90;;;;;;5054620;28;20673;-66
2021/12/27 05:21:18;;;;;;;24.63;12.60;;;-1.10;99.90;;;;;;5054702;28;20663;-66
2021/12/27 05:23:45;;;;;;;21.90;12.37;;;-1.10;99.90;;;;;;5053880;28;20649;-66
2021/12/27 05:26:12;;;;;;;24.73;12.47;;;-1.10;99.90;;;;;;5054427;28;20285;-66
2021/12/27 05:28:40;;;;;;;26.27;12.17;;;-1.10;99.90;;;;;;5035148;28;20192;-66
2021/12/27 05:31:07;;;;;;;23.17;12.43;;;-1.10;99.90;;;;;;5039435;28;20199;-66
2021/12/27 05:33:34;;;;;;;25.90;14.43;;;-1.00;99.90;;;;;;5053782;28;20206;-66
2021/12/27 05:36:02;;;;;;;22.37;12.87;;;-1.00;99.90;;;;;;5054200;28;20245;-66
2021/12/27 05:38:29;;;;;;;24.33;12.57;;;-1.00;99.90;;;;;;5052830;28;20234;-66
2021/12/27 05:40:56;;;;;;;24.77;13.13;;;-1.00;99.90;;;;;;5053299;28;20665;-66
2021/12/27 05:43:24;;;;;;;25.07;13.87;;;-1.00;99.90;;;;;;5054200;28;20211;-66
2021/12/27 05:45:53;;;;;;;23.87;13.67;;;-1.00;99.90;;;;;;5054618;28;20245;-66
2021/12/27 05:48:20;;;;;;;23.57;12.80;;;-1.00;99.90;;;;;;5054446;28;20250;-66
2021/12/27 05:50:47;;;;;;;25.33;13.73;;;-1.00;99.90;;;;;;5054369;28;20230;-66
2021/12/27 05:53:14;;;;;;;23.57;13.13;;;-1.00;99.90;;;;;;5054425;28;20199;-66
2021/12/27 05:55:41;;;;;;;24.83;14.10;;;-1.00;99.90;;;;;;5054181;28;20199;-66
2021/12/27 05:58:08;;;;;;;23.80;13.30;;;-0.90;99.90;;;;;;5054832;28;20207;-66
2021/12/27 06:00:35;;;;;;;24.17;14.23;;;-1.00;99.90;;;;;;5054255;28;20252;-66
2021/12/27 06:03:04;;;;;;;27.03;14.10;;;-1.00;99.90;;;;;;5053646;28;20265;-66
2021/12/27 06:05:32;;;;;;;25.53;13.70;;;-1.00;99.90;;;;;;5052653;28;20195;-75
2021/12/27 06:08:01;;;;;;;24.87;13.80;;;-1.00;99.90;;;;;;5053290;28;20771;-72
2021/12/27 06:10:28;;;;;;;25.83;13.50;;;-1.00;99.90;;;;;;5053991;28;20210;-72
2021/12/27 06:12:55;;;;;;;24.17;13.70;;;-1.00;99.90;;;;;;5052740;28;20352;-71
2021/12/27 06:15:22;;;;;;;25.20;13.40;;;-0.90;99.90;;;;;;5053231;28;20673;-72
2021/12/27 06:17:49;;;;;;;24.20;13.23;;;-0.90;99.90;;;;;;5048341;28;20257;-72
2021/12/27 06:20:18;;;;;;;26.27;13.70;;;-0.90;99.90;;;;;;5048937;28;20258;-72
2021/12/27 06:22:47;;;;;;;25.20;13.47;;;-0.90;99.90;;;;;;5052030;28;20203;-72
2021/12/27 06:25:15;;;;;;;28.63;13.63;;;-0.90;99.90;;;;;;5051181;28;20673;-71
2021/12/27 06:27:42;;;;;;;25.93;14.13;;;-0.90;99.90;;;;;;5048819;28;20645;-72
2021/12/27 06:30:11;;;;;;;25.53;13.83;;;-0.90;99.90;;;;;;5052795;28;20199;-72
2021/12/27 06:32:39;;;;;;;25.40;14.80;;;-0.90;99.90;;;;;;5051754;28;20203;-72
2021/12/27 06:35:08;;;;;;;27.63;13.37;;;-0.90;99.90;;;;;;5052869;28;20235;-72
2021/12/27 06:37:36;;;;;;;25.37;13.70;;;-0.90;99.90;;;;;;5051927;28;20211;-72
2021/12/27 06:40:04;;;;;;;27.90;15.03;;;-0.90;99.90;;;;;;5052612;28;20199;-71
2021/12/27 06:42:32;;;;;;;29.83;15.13;;;-0.90;99.90;;;;;;5052031;28;20203;-72
2021/12/27 06:44:59;;;;;;;22.90;14.70;;;-0.90;99.90;;;;;;5051239;28;20276;-72
2021/12/27 06:47:26;;;;;;;29.00;15.10;;;-0.80;99.90;;;;;;5052113;28;20218;-72
2021/12/27 06:49:53;;;;;;;26.03;14.87;;;-0.80;99.90;;;;;;5049933;28;20195;-72
2021/12/27 06:52:20;;;;;;;24.60;14.63;;;-0.80;99.90;;;;;;5051789;28;20207;-71
2021/12/27 06:54:49;;;;;;;24.20;13.97;;;-0.80;99.90;;;;;;5051805;28;20207;-72
2021/12/27 06:57:18;;;;;;;26.83;14.67;;;-0.80;99.90;;;;;;5050740;28;20673;-71
2021/12/27 06:59:45;;;;;;;24.67;14.20;;;-0.80;99.90;;;;;;5052005;28;20589;-72
2021/12/27 07:02:12;;;;;;;25.80;14.40;;;-0.80;99.90;;;;;;5051531;28;20195;-71
2021/12/27 07:04:39;;;;;;;27.17;14.63;;;-0.80;99.90;;;;;;5051245;28;20253;-72
2021/12/27 07:07:06;;;;;;;28.30;14.83;;;-0.80;99.90;;;;;;5047975;28;20259;-71
2021/12/27 07:09:33;;;;;;;27.27;14.83;;;-0.80;99.90;;;;;;5051409;28;20203;-72
2021/12/27 07:12:02;;;;;;;29.33;15.33;;;-0.80;99.90;;;;;;5051644;28;20249;-72
2021/12/27 07:14:29;;;;;;;27.57;14.30;;;-0.80;99.90;;;;;;5051808;28;20245;-72
2021/12/27 07:16:56;;;;;;;26.13;14.27;;;-0.80;99.90;;;;;;5051403;28;20227;-71
2021/12/27 07:19:23;;;;;;;28.13;15.20;;;-0.80;99.90;;;;;;5051075;28;20211;-72
2021/12/27 07:21:50;;;;;;;27.23;15.67;;;-0.80;99.90;;;;;;5051406;28;20277;-72
2021/12/27 07:24:17;;;;;;;23.87;14.17;;;-0.70;99.90;;;;;;5050514;28;20235;-72
2021/12/27 07:26:44;;;;;;;28.50;14.70;;;-0.70;99.90;;;;;;5050624;28;20199;-72
2021/12/27 07:29:13;;;;;;;25.90;15.53;;;-0.70;99.90;;;;;;5050437;28;20231;-72
2021/12/27 07:31:40;;;;;;;26.07;14.83;;;-0.60;99.90;;;;;;5050638;28;20645;-72
2021/12/27 07:34:07;;;;;;;25.13;13.60;;;-0.60;99.90;;;;;;5050409;28;20203;-72
2021/12/27 07:36:34;;;;;;;26.50;15.07;;;-0.60;99.90;;;;;;5048865;28;20242;-72
2021/12/27 07:39:01;;;;;;;26.07;14.97;;;-0.60;99.90;;;;;;5049646;28;20207;-71
2021/12/27 07:41:28;;;;;;;27.00;15.23;;;-0.60;99.90;;;;;;5049655;28;20203;-72
2021/12/27 07:43:56;;;;;;;27.37;16.50;;;-0.60;99.90;;;;;;5050334;28;20199;-72
2021/12/27 07:46:25;;;;;;;27.97;15.73;;;-0.60;99.90;;;;;;5047554;28;20229;-72
2021/12/27 07:48:52;;;;;;;27.60;15.90;;;-0.60;99.90;;;;;;5047968;28;20590;-72
2021/12/27 07:51:19;;;;;;;25.87;15.97;;;-0.50;99.90;;;;;;5050602;28;20211;-72
2021/12/27 07:53:46;;;;;;;28.00;15.77;;;-0.50;99.90;;;;;;5048428;28;20203;-72
2021/12/27 07:56:13;;;;;;;28.57;15.67;;;-0.50;99.90;;;;;;5049780;28;20234;-72
2021/12/27 07:58:40;;;;;;;28.67;16.77;;;-0.50;99.90;;;;;;5048614;28;20218;-72
2021/12/27 08:01:07;;;;;;;30.27;17.17;;;-0.50;99.90;;;;;;5050280;28;20241;-72
2021/12/27 08:03:36;;;;;;;28.63;15.90;;;-0.50;99.90;;;;;;5049345;28;20253;-72
2021/12/27 08:06:03;;;;;;;26.47;15.70;;;-0.50;99.90;;;;;;5049880;28;20254;-72
2021/12/27 08:08:30;;;;;;;31.07;16.77;;;-0.50;99.90;;;;;;5049214;28;20258;-72
2021/12/27 08:10:57;;;;;;;25.73;15.10;;;-0.50;99.90;;;;;;5050028;28;20203;-72
2021/12/27 08:13:24;;;;;;;29.37;15.67;;;-0.50;99.90;;;;;;5049654;28;20265;-72
2021/12/27 08:15:51;;;;;;;30.20;16.13;;;-0.50;99.90;;;;;;5049950;28;20258;-72
2021/12/27 08:18:19;;;;;;;28.40;15.53;;;-0.50;99.90;;;;;;5047813;28;20211;-72
2021/12/27 08:20:48;;;;;;;31.03;16.43;;;-0.40;99.90;;;;;;5047794;28;20215;-72
2021/12/27 08:23:16;;;;;;;26.80;15.67;;;-0.40;99.90;;;;;;5049389;28;20203;-71
2021/12/27 08:25:43;;;;;;;25.43;15.83;;;-0.40;99.90;;;;;;5048300;28;20666;-72
2021/12/27 08:28:10;;;;;;;28.33;16.13;;;-0.30;99.90;;;;;;5048774;28;20223;-72
2021/12/27 08:30:37;;;;;;;26.77;15.27;;;-0.30;99.90;;;;;;5049341;28;20252;-72
2021/12/27 08:33:04;;;;;;;28.57;16.37;;;-0.30;99.90;;;;;;5048842;28;20541;-72
2021/12/27 08:35:31;;;;;;;27.83;16.63;;;-0.20;99.90;;;;;;5049283;28;20265;-72
2021/12/27 08:37:59;;;;;;;27.73;16.17;;;-0.20;99.90;;;;;;5047393;28;20264;-72
2021/12/27 08:40:26;;;;;;;28.47;17.07;;;-0.20;99.90;;;;;;5047214;28;20206;-72
2021/12/27 08:42:54;;;;;;;28.00;15.37;;;-0.10;99.90;;;;;;5044180;28;20257;-72
2021/12/27 08:45:21;;;;;;;27.37;16.53;;;-0.10;99.90;;;;;;5047520;28;20211;-72
2021/12/27 08:47:49;;;;;;;28.40;15.87;;;-0.10;99.90;;;;;;5049895;28;20270;-72
2021/12/27 08:50:17;;;;;;;27.17;15.83;;;-0.10;99.90;;;;;;5049288;28;20292;-72
2021/12/27 08:52:45;;;;;;;29.87;17.47;;;0.00;99.90;;;;;;5049380;28;20238;-72
2021/12/27 08:55:14;;;;;;;28.27;17.33;;;-0.10;99.90;;;;;;5047536;28;20212;-72
2021/12/27 08:57:42;;;;;;;28.67;16.70;;;-0.10;99.90;;;;;;5049219;28;20623;-72
2021/12/27 09:00:12;;;;;;;29.73;17.60;;;0.00;99.90;;;;;;5043884;28;20796;-72
2021/12/27 09:02:39;;;;;;;30.70;18.33;;;0.00;99.90;;;;;;5050346;28;20211;-72
2021/12/27 09:05:06;;;;;;;29.63;17.67;;;0.10;99.90;;;;;;5047677;28;20253;-72
2021/12/27 09:07:33;;;;;;;33.07;18.33;;;0.20;99.90;;;;;;5050205;28;20238;-71
2021/12/27 09:10:01;;;;;;;28.53;16.80;;;0.10;99.90;;;;;;5046991;28;20199;-72
2021/12/27 09:12:29;;;;;;;30.50;16.77;;;0.20;99.90;;;;;;5049537;28;20276;-72
2021/12/27 09:14:56;;;;;;;31.00;18.53;;;0.10;99.90;;;;;;5045261;28;20626;-71
2021/12/27 09:17:23;;;;;;;30.47;17.83;;;0.10;99.90;;;;;;5050270;28;20207;-71
2021/12/27 09:19:50;;;;;;;32.77;18.63;;;0.10;99.90;;;;;;5049530;28;20268;-71
2021/12/27 09:22:18;;;;;;;32.90;19.37;;;0.20;99.90;;;;;;5048788;28;20221;-71
2021/12/27 09:24:46;;;;;;;31.87;19.07;;;0.20;99.90;;;;;;5045630;28;20210;-71
2021/12/27 09:27:13;;;;;;;30.27;17.57;;;0.30;99.90;;;;;;5050079;28;20264;-71
2021/12/27 09:29:43;;;;;;;32.47;18.30;;;0.20;99.90;;;;;;5046500;28;20226;-71
2021/12/27 09:32:10;;;;;;;28.73;17.63;;;0.30;99.90;;;;;;5049215;28;20261;-75
2021/12/27 09:34:38;;;;;;;32.43;19.10;;;0.30;99.90;;;;;;5047580;28;20235;-75
2021/12/27 09:37:06;;;;;;;31.07;17.20;;;0.30;99.90;;;;;;5049946;28;20201;-75
2021/12/27 09:39:33;;;;;;;33.80;18.93;;;0.40;99.90;;;;;;5049102;28;20665;-75
2021/12/27 09:42:00;;;;;;;31.53;18.67;;;0.40;99.90;;;;;;5045593;28;20203;-75
2021/12/27 09:44:29;;;;;;;31.17;18.27;;;0.40;99.90;;;;;;5047601;28;20606;-75
2021/12/27 09:46:57;;;;;;;30.60;17.93;;;0.40;99.90;;;;;;5045989;28;20203;-75
2021/12/27 09:49:29;;;;;;;32.83;19.17;;;0.50;99.90;;;;;;5049321;28;20230;-75
2021/12/27 09:51:57;;;;;;;35.13;19.97;;;0.50;99.90;;;;;;5047716;28;20198;-75
2021/12/27 09:54:26;;;;;;;33.90;19.67;;;0.50;99.90;;;;;;5049265;28;20213;-75
2021/12/27 09:56:53;;;;;;;34.57;20.00;;;0.60;99.90;;;;;;5046705;28;20245;-75
2021/12/27 09:59:22;;;;;;;31.40;19.37;;;0.60;99.90;;;;;;5048488;28;20207;-75
2021/12/27 10:01:49;;;;;;;31.20;17.87;;;0.60;99.90;;;;;;5051873;28;20703;-75
2021/12/27 10:04:18;;;;;;;31.63;18.57;;;0.60;99.90;;;;;;5052844;28;20256;-75
2021/12/27 10:06:45;;;;;;;29.57;17.53;;;0.60;99.90;;;;;;5053202;28;20269;-75
2021/12/27 10:09:12;;;;;;;29.93;18.03;;;0.70;99.90;;;;;;5052898;28;20227;-75
2021/12/27 10:11:42;;;;;;;32.50;18.73;;;0.70;99.90;;;;;;5048383;28;20203;-75
2021/12/27 10:14:12;;;;;;;33.30;19.80;;;0.60;99.90;;;;;;5052477;28;20294;-75
2021/12/27 10:16:43;;;;;;;34.93;19.93;;;0.60;99.90;;;;;;5048383;28;20261;-75
2021/12/27 10:19:13;;;;;;;33.30;18.27;;;0.70;99.90;;;;;;5048193;28;20242;-75
2021/12/27 10:21:42;;;;;;;33.07;19.73;;;0.70;99.90;;;;;;5050263;28;20221;-75
2021/12/27 10:24:13;;;;;;;33.47;19.80;;;0.70;99.90;;;;;;5051481;28;20214;-75
2021/12/27 10:26:41;;;;;;;32.60;19.63;;;0.70;99.90;;;;;;5051644;28;20211;-75
2021/12/27 10:29:14;;;;;;;33.67;19.67;;;0.70;99.90;;;;;;5051025;28;20222;-75
2021/12/27 10:31:56;;;;;;;35.20;18.53;;;0.70;99.90;;;;;;5048960;28;20246;-75
2021/12/27 10:34:24;;;;;;;32.13;18.77;;;0.80;99.90;;;;;;5048870;28;20203;-75
2021/12/27 10:37:13;;;;;;;32.97;19.10;;;0.80;99.90;;;;;;5051113;28;20822;-75
2021/12/27 10:39:55;;;;;;;32.67;18.47;;;0.80;99.90;;;;;;5050101;28;20249;-75
2021/12/27 10:42:27;;;;;;;32.43;18.77;;;0.90;99.90;;;;;;5047525;28;20654;-75
2021/12/27 10:44:58;;;;;;;33.47;19.63;;;0.80;99.90;;;;;;5050228;28;20207;-75
2021/12/27 10:47:44;;;;;;;33.40;19.73;;;0.90;99.90;;;;;;5048307;28;20210;-75
2021/12/27 10:50:17;;;;;;;34.07;20.47;;;0.90;99.90;;;;;;5049293;28;20309;-74
2021/12/27 10:52:51;;;;;;;32.23;20.10;;;1.00;99.90;;;;;;5049767;28;20288;-74
2021/12/27 10:55:20;;;;;;;34.27;20.47;;;1.10;99.90;;;;;;5049070;28;20203;-75
2021/12/27 10:57:48;;;;;;;35.03;20.87;;;1.20;99.90;;;;;;5050140;28;20207;-74
2021/12/27 11:00:25;;;;;;;32.23;19.70;;;1.20;99.90;;;;;;5050486;28;20627;-74
2021/12/27 11:02:52;;;;;;;33.83;20.07;;;1.20;99.90;;;;;;5050310;28;20195;-74
2021/12/27 11:05:23;;;;;;;35.50;20.20;;;1.30;99.90;;;;;;5051329;28;20207;-73
2021/12/27 11:07:52;;;;;;;33.97;20.03;;;1.30;99.90;;;;;;5050961;28;20604;-73
2021/12/27 11:10:20;;;;;;;34.07;20.37;;;1.30;99.90;;;;;;5048983;28;20732;-74
2021/12/27 11:12:48;;;;;;;36.13;20.80;;;1.40;99.90;;;;;;5049535;28;20210;-75
2021/12/27 11:15:16;;;;;;;33.00;20.17;;;1.40;99.90;;;;;;5049047;28;20217;-74
2021/12/27 11:17:43;;;;;;;32.80;19.73;;;1.40;99.90;;;;;;5050320;28;20199;-74
2021/12/27 11:20:12;;;;;;;31.33;18.33;;;1.40;99.90;;;;;;5049591;28;20215;-73
2021/12/27 11:22:41;;;;;;;32.77;20.17;;;1.40;99.90;;;;;;5050299;28;20195;-74
2021/12/27 11:25:22;;;;;;;33.33;21.43;;;1.50;99.90;;;;;;5050237;28;20652;-74
2021/12/27 11:27:50;;;;;;;35.70;21.60;;;1.40;99.90;;;;;;5050105;28;20235;-74
2021/12/27 11:30:22;;;;;;;35.73;21.33;;;1.40;99.90;;;;;;5047310;28;20596;-74
2021/12/27 11:33:17;;;;;;;34.20;20.07;;;1.50;99.90;;;;;;5049757;28;20198;-74
2021/12/27 11:36:09;;;;;;;33.77;20.73;;;1.60;99.90;;;;;;5048548;28;20206;-75
2021/12/27 11:38:39;;;;;;;32.63;19.83;;;1.60;99.90;;;;;;5048146;28;20653;-75
2021/12/27 11:41:26;;;;;;;32.47;19.43;;;1.80;99.90;;;;;;5050464;28;20203;-75
2021/12/27 11:43:55;;;;;;;32.73;20.43;;;1.80;99.90;;;;;;5048301;28;20202;-75
2021/12/27 11:46:23;;;;;;;34.43;19.93;;;1.80;99.90;;;;;;5050636;28;20260;-75
2021/12/27 11:48:52;;;;;;;35.00;20.73;;;1.70;99.90;;;;;;5049542;28;20222;-75
2021/12/27 11:51:28;;;;;;;32.47;20.03;;;1.90;99.90;;;;;;5050081;28;20257;-75
2021/12/27 11:53:55;;;;;;;34.00;21.00;;;1.80;99.90;;;;;;5048434;28;20230;-75
2021/12/27 11:56:46;;;;;;;31.03;19.67;;;1.90;99.90;;;;;;5050526;28;20298;-75
2021/12/27 11:59:35;;;;;;;34.17;20.53;;;2.00;99.90;;;;;;5041879;28;20198;-75
2021/12/27 12:02:23;;;;;;;33.60;20.93;;;2.00;99.90;;;;;;5047529;28;20213;-76
2021/12/27 12:04:53;;;;;;;31.73;20.33;;;2.10;99.90;;;;;;5049207;28;20235;-76
2021/12/27 12:07:54;;;;;;;31.03;21.00;;;2.10;99.90;;;;;;5049335;28;20203;-76
2021/12/27 12:10:22;;;;;;;32.13;20.57;;;2.20;99.90;;;;;;5047618;28;20229;-76
2021/12/27 12:13:17;;;;;;;31.87;19.13;;;2.20;99.90;;;;;;5049053;28;20291;-76
2021/12/27 12:16:01;;;;;;;31.80;19.13;;;2.20;99.90;;;;;;5048173;28;20209;-76
2021/12/27 12:18:29;;;;;;;32.37;19.63;;;2.30;99.90;;;;;;5046470;28;20199;-76
2021/12/27 12:20:57;;;;;;;32.97;19.63;;;2.30;99.90;;;;;;5049238;28;20218;-76
2021/12/27 12:23:24;;;;;;;30.57;19.80;;;2.30;99.90;;;;;;5049554;28;20203;-76
2021/12/27 12:25:59;;;;;;;32.47;20.10;;;2.30;99.90;;;;;;5048070;28;20304;-76
2021/12/27 12:28:28;;;;;;;31.40;19.50;;;2.30;99.90;;;;;;5047011;28;20653;-76
2021/12/27 12:30:56;;;;;;;33.13;19.70;;;2.30;99.90;;;;;;5048640;28;20731;-76
2021/12/27 12:33:25;;;;;;;32.67;20.33;;;2.20;99.90;;;;;;5048862;28;20195;-76
2021/12/27 12:35:54;;;;;;;37.17;20.10;;;2.30;99.90;;;;;;5045773;28;20210;-76
2021/12/27 12:38:24;;;;;;;32.43;19.80;;;2.30;99.90;;;;;;5049343;28;20203;-76